world map with AUA marked

AUA - Airport

This information may not be accurate or current and is not valid for navigation or flight planning. No warranty of fitness for any purpose is made or implied.

flag of Aruba

Donate via PayPal

Additional information is available on the NEW Great Circle Mapper

Location
City:  Aruba)], Aruba
Near (Alt.):Oranjestad
Name:Reina Beatrix International (Queen Beatrix International
ICAO / IATA:TNCA / AUA

Details
Type:Airport (Aerodrome, Airfield)
Use:Public/Civil
Latitude:12°30'05"N (12.501389)
Longitude:70°00'55"W (-70.015220)
Datum:WGS 1984
Elevation:60 ft (18 m)
Runways:1
Longest:9000 × 148 ft (2743 × 45 m)

Time
Timezone:UTC+30:08 (DST+32:08)
Local Time:

Weather
METAR:TNCA  191300Z 09015KT 9999 SCT018 28/24 Q1014 A2997 NOSIG
TAF:TNCA  (expired)

Related Locations
Nearby:
Farthest:XCH: 12122 mi / 19509 km
Christmas Island, CX

Find:

   beyond  
but within

Other Information
Maps:
Links:
Sources:

  


 


Great Circle Mapper   Great Circle Mapper
Great Circle Mapper FAQ   Great Circle Mapper FAQ
  Karl's Home Page
KLSē   KLSē Home
   GC on Facebook
Airlines of the World   Airlines of the World
Donate via PayPal


Copyright © 2004-2017, Karl L. Swartz. All rights reserved.
All trademarks mentioned herein belong to their respective owners.

Please see credits for attribution and copyright information.

Karl Swartz <karl@kls2.com>
  Powered by FreeBSD
Valid HTML 4.01!
Labeled with ICRA
hCard Microformat
Geo Microformat